sensor_id;sensor_type;location;lat;lon;timestamp;temperature;humidity
66312;HTU21D;53114;51.138;6.008;2023-10-09T00:02:12;16.87;118.99
66312;HTU21D;53114;51.138;6.008;2023-10-09T00:04:41;16.86;118.99
66312;HTU21D;53114;51.138;6.008;2023-10-09T00:07:08;16.81;118.99
66312;HTU21D;53114;51.138;6.008;2023-10-09T00:09:36;16.77;118.99
66312;HTU21D;53114;51.138;6.008;2023-10-09T00:12:18;16.74;118.99
66312;HTU21D;53114;51.138;6.008;2023-10-09T00:14:48;16.69;118.99
66312;HTU21D;53114;51.138;6.008;2023-10-09T00:17:17;16.66;118.99
66312;HTU21D;53114;51.138;6.008;2023-10-09T00:19:47;16.64;118.99
66312;HTU21D;53114;51.138;6.008;2023-10-09T00:22:18;16.61;118.99
66312;HTU21D;53114;51.138;6.008;2023-10-09T00:24:50;16.56;118.99
66312;HTU21D;53114;51.138;6.008;2023-10-09T00:27:25;16.52;118.99
66312;HTU21D;53114;51.138;6.008;2023-10-09T00:29:57;16.50;118.99
66312;HTU21D;53114;51.138;6.008;2023-10-09T00:32:23;16.51;118.99
66312;HTU21D;53114;51.138;6.008;2023-10-09T00:34:53;16.48;118.99
66312;HTU21D;53114;51.138;6.008;2023-10-09T00:37:24;16.43;118.99
66312;HTU21D;53114;51.138;6.008;2023-10-09T00:39:52;16.39;118.99
66312;HTU21D;53114;51.138;6.008;2023-10-09T00:42:24;16.37;118.99
66312;HTU21D;53114;51.138;6.008;2023-10-09T00:44:56;16.41;118.99
66312;HTU21D;53114;51.138;6.008;2023-10-09T00:47:23;16.46;118.99
66312;HTU21D;53114;51.138;6.008;2023-10-09T00:50:01;16.51;118.99
66312;HTU21D;53114;51.138;6.008;2023-10-09T00:52:54;16.59;118.99
66312;HTU21D;53114;51.138;6.008;2023-10-09T00:55:38;16.62;118.99
66312;HTU21D;53114;51.138;6.008;2023-10-09T00:58:06;16.66;118.99
66312;HTU21D;53114;51.138;6.008;2023-10-09T01:00:49;16.71;118.99
66312;HTU21D;53114;51.138;6.008;2023-10-09T01:03:19;16.75;118.99
66312;HTU21D;53114;51.138;6.008;2023-10-09T01:05:49;16.77;118.99
66312;HTU21D;53114;51.138;6.008;2023-10-09T01:08:27;16.80;118.99
66312;HTU21D;53114;51.138;6.008;2023-10-09T01:11:13;16.84;118.99
66312;HTU21D;53114;51.138;6.008;2023-10-09T01:13:48;16.82;118.99
66312;HTU21D;53114;51.138;6.008;2023-10-09T01:16:15;16.85;118.99
66312;HTU21D;53114;51.138;6.008;2023-10-09T01:18:46;16.88;118.99
66312;HTU21D;53114;51.138;6.008;2023-10-09T01:21:16;16.90;118.99
66312;HTU21D;53114;51.138;6.008;2023-10-09T01:23:44;16.91;118.99
66312;HTU21D;53114;51.138;6.008;2023-10-09T01:26:39;16.94;118.99
66312;HTU21D;53114;51.138;6.008;2023-10-09T01:29:12;16.95;118.99
66312;HTU21D;53114;51.138;6.008;2023-10-09T01:31:44;17.00;118.99
66312;HTU21D;53114;51.138;6.008;2023-10-09T01:34:26;17.03;118.99
66312;HTU21D;53114;51.138;6.008;2023-10-09T01:37:09;17.05;118.99
66312;HTU21D;53114;51.138;6.008;2023-10-09T01:39:48;17.07;118.99
66312;HTU21D;53114;51.138;6.008;2023-10-09T01:42:15;17.07;118.99
66312;HTU21D;53114;51.138;6.008;2023-10-09T01:44:56;17.08;118.99
66312;HTU21D;53114;51.138;6.008;2023-10-09T01:47:36;17.09;118.99
66312;HTU21D;53114;51.138;6.008;2023-10-09T01:50:07;17.11;118.99
66312;HTU21D;53114;51.138;6.008;2023-10-09T01:52:50;17.11;118.99
66312;HTU21D;53114;51.138;6.008;2023-10-09T01:55:20;17.13;118.99
66312;HTU21D;53114;51.138;6.008;2023-10-09T01:58:06;17.15;118.99
66312;HTU21D;53114;51.138;6.008;2023-10-09T02:00:48;17.15;118.99
66312;HTU21D;53114;51.138;6.008;2023-10-09T02:03:19;17.17;118.99
66312;HTU21D;53114;51.138;6.008;2023-10-09T02:05:50;17.18;118.99
66312;HTU21D;53114;51.138;6.008;2023-10-09T02:08:17;17.19;118.99
66312;HTU21D;53114;51.138;6.008;2023-10-09T02:10:48;17.20;118.99
66312;HTU21D;53114;51.138;6.008;2023-10-09T02:13:15;17.20;118.99
66312;HTU21D;53114;51.138;6.008;2023-10-09T02:15:43;17.21;118.99
66312;HTU21D;53114;51.138;6.008;2023-10-09T02:18:17;17.20;118.99
66312;HTU21D;53114;51.138;6.008;2023-10-09T02:20:52;17.19;118.99
66312;HTU21D;53114;51.138;6.008;2023-10-09T02:23:41;17.21;118.99
66312;HTU21D;53114;51.138;6.008;2023-10-09T02:26:19;17.20;118.99
66312;HTU21D;53114;51.138;6.008;2023-10-09T02:28:55;17.21;118.99
66312;HTU21D;53114;51.138;6.008;2023-10-09T02:31:27;17.22;118.99
66312;HTU21D;53114;51.138;6.008;2023-10-09T02:34:09;17.23;118.99
66312;HTU21D;53114;51.138;6.008;2023-10-09T02:36:41;17.23;118.99
66312;HTU21D;53114;51.138;6.008;2023-10-09T02:39:15;17.25;118.99
66312;HTU21D;53114;51.138;6.008;2023-10-09T02:41:52;17.28;118.99
66312;HTU21D;53114;51.138;6.008;2023-10-09T02:44:21;17.29;118.99
66312;HTU21D;53114;51.138;6.008;2023-10-09T02:46:52;17.30;118.99
66312;HTU21D;53114;51.138;6.008;2023-10-09T02:49:24;17.31;118.99
66312;HTU21D;53114;51.138;6.008;2023-10-09T02:51:50;17.31;118.99
66312;HTU21D;53114;51.138;6.008;2023-10-09T02:54:19;17.31;118.99
66312;HTU21D;53114;51.138;6.008;2023-10-09T02:56:49;17.30;118.99
66312;HTU21D;53114;51.138;6.008;2023-10-09T02:59:31;17.32;118.99
66312;HTU21D;53114;51.138;6.008;2023-10-09T03:01:57;17.32;118.99
66312;HTU21D;53114;51.138;6.008;2023-10-09T03:04:28;17.33;118.99
66312;HTU21D;53114;51.138;6.008;2023-10-09T03:06:58;17.33;118.99
66312;HTU21D;53114;51.138;6.008;2023-10-09T03:09:25;17.33;118.99
66312;HTU21D;53114;51.138;6.008;2023-10-09T03:12:00;17.33;118.99
66312;HTU21D;53114;51.138;6.008;2023-10-09T03:14:31;17.31;118.99
66312;HTU21D;53114;51.138;6.008;2023-10-09T03:16:58;17.30;118.99
66312;HTU21D;53114;51.138;6.008;2023-10-09T03:19:29;17.30;118.99
66312;HTU21D;53114;51.138;6.008;2023-10-09T03:21:56;17.29;118.99
66312;HTU21D;53114;51.138;6.008;2023-10-09T03:24:26;17.30;118.99
66312;HTU21D;53114;51.138;6.008;2023-10-09T03:26:53;17.31;118.99
66312;HTU21D;53114;51.138;6.008;2023-10-09T03:29:22;17.31;118.99
66312;HTU21D;53114;51.138;6.008;2023-10-09T03:31:47;17.33;118.99
66312;HTU21D;53114;51.138;6.008;2023-10-09T03:34:17;17.33;118.99
66312;HTU21D;53114;51.138;6.008;2023-10-09T03:36:47;17.32;118.99
66312;HTU21D;53114;51.138;6.008;2023-10-09T03:39:14;17.33;118.99
66312;HTU21D;53114;51.138;6.008;2023-10-09T03:41:59;17.31;118.99
66312;HTU21D;53114;51.138;6.008;2023-10-09T03:44:25;17.31;118.99
66312;HTU21D;53114;51.138;6.008;2023-10-09T03:46:54;17.31;118.99
66312;HTU21D;53114;51.138;6.008;2023-10-09T03:49:20;17.29;118.99
66312;HTU21D;53114;51.138;6.008;2023-10-09T03:51:52;17.26;118.99
66312;HTU21D;53114;51.138;6.008;2023-10-09T03:54:19;17.24;118.99
66312;HTU21D;53114;51.138;6.008;2023-10-09T03:56:46;17.21;118.99
66312;HTU21D;53114;51.138;6.008;2023-10-09T03:59:19;17.22;118.99
66312;HTU21D;53114;51.138;6.008;2023-10-09T04:01:48;17.22;118.99
66312;HTU21D;53114;51.138;6.008;2023-10-09T04:04:17;17.23;118.99
66312;HTU21D;53114;51.138;6.008;2023-10-09T04:06:43;17.25;118.99
66312;HTU21D;53114;51.138;6.008;2023-10-09T04:09:10;17.26;118.99
66312;HTU21D;53114;51.138;6.008;2023-10-09T04:11:50;17.26;118.99
66312;HTU21D;53114;51.138;6.008;2023-10-09T04:14:23;17.26;118.99
66312;HTU21D;53114;51.138;6.008;2023-10-09T04:16:59;17.28;118.99
66312;HTU21D;53114;51.138;6.008;2023-10-09T04:19:55;17.26;118.99
66312;HTU21D;53114;51.138;6.008;2023-10-09T04:22:40;17.25;118.99
66312;HTU21D;53114;51.138;6.008;2023-10-09T04:25:27;17.25;118.99
66312;HTU21D;53114;51.138;6.008;2023-10-09T04:27:56;17.23;118.99
66312;HTU21D;53114;51.138;6.008;2023-10-09T04:30:41;17.22;118.99
66312;HTU21D;53114;51.138;6.008;2023-10-09T04:33:15;17.22;118.99
66312;HTU21D;53114;51.138;6.008;2023-10-09T04:36:07;17.22;118.99
66312;HTU21D;53114;51.138;6.008;2023-10-09T04:38:49;17.20;118.99
66312;HTU21D;53114;51.138;6.008;2023-10-09T04:41:30;17.20;118.99
66312;HTU21D;53114;51.138;6.008;2023-10-09T04:44:19;17.20;118.99
66312;HTU21D;53114;51.138;6.008;2023-10-09T04:46:49;17.22;118.99
66312;HTU21D;53114;51.138;6.008;2023-10-09T04:49:45;17.23;118.99
66312;HTU21D;53114;51.138;6.008;2023-10-09T04:52:14;17.23;118.99
66312;HTU21D;53114;51.138;6.008;2023-10-09T04:54:56;17.24;118.99
66312;HTU21D;53114;51.138;6.008;2023-10-09T04:57:42;17.23;118.99
66312;HTU21D;53114;51.138;6.008;2023-10-09T05:00:09;17.23;118.99
66312;HTU21D;53114;51.138;6.008;2023-10-09T05:03:00;17.21;118.99
66312;HTU21D;53114;51.138;6.008;2023-10-09T05:05:37;17.23;118.99
66312;HTU21D;53114;51.138;6.008;2023-10-09T05:08:16;17.23;118.99
66312;HTU21D;53114;51.138;6.008;2023-10-09T05:11:02;17.21;118.99
66312;HTU21D;53114;51.138;6.008;2023-10-09T05:13:34;17.23;118.99
66312;HTU21D;53114;51.138;6.008;2023-10-09T05:16:12;17.23;118.99
66312;HTU21D;53114;51.138;6.008;2023-10-09T05:18:49;17.21;118.99
66312;HTU21D;53114;51.138;6.008;2023-10-09T05:21:37;17.20;118.99
66312;HTU21D;53114;51.138;6.008;2023-10-09T05:24:07;17.21;118.99
66312;HTU21D;53114;51.138;6.008;2023-10-09T05:26:50;17.20;118.99
66312;HTU21D;53114;51.138;6.008;2023-10-09T05:29:21;17.19;118.99
66312;HTU21D;53114;51.138;6.008;2023-10-09T05:32:04;17.19;118.99
66312;HTU21D;53114;51.138;6.008;2023-10-09T05:34:41;17.19;118.99
66312;HTU21D;53114;51.138;6.008;2023-10-09T05:37:30;17.22;118.99
66312;HTU21D;53114;51.138;6.008;2023-10-09T05:40:01;17.23;118.99
66312;HTU21D;53114;51.138;6.008;2023-10-09T05:42:36;17.26;118.99
66312;HTU21D;53114;51.138;6.008;2023-10-09T05:45:05;17.25;118.99
66312;HTU21D;53114;51.138;6.008;2023-10-09T05:47:48;17.24;118.99
66312;HTU21D;53114;51.138;6.008;2023-10-09T05:50:30;17.26;118.99
66312;HTU21D;53114;51.138;6.008;2023-10-09T05:52:59;17.25;118.99
66312;HTU21D;53114;51.138;6.008;2023-10-09T05:55:29;17.28;118.99
66312;HTU21D;53114;51.138;6.008;2023-10-09T05:58:14;17.28;118.99
66312;HTU21D;53114;51.138;6.008;2023-10-09T06:00:59;17.30;118.99
66312;HTU21D;53114;51.138;6.008;2023-10-09T06:03:43;17.30;118.99
66312;HTU21D;53114;51.138;6.008;2023-10-09T06:06:23;17.30;118.99
66312;HTU21D;53114;51.138;6.008;2023-10-09T06:09:08;17.35;118.99
66312;HTU21D;53114;51.138;6.008;2023-10-09T06:11:48;17.39;118.63
66312;HTU21D;53114;51.138;6.008;2023-10-09T06:14:24;17.43;118.24
66312;HTU21D;53114;51.138;6.008;2023-10-09T06:16:57;17.45;117.57
66312;HTU21D;53114;51.138;6.008;2023-10-09T06:19:24;17.47;117.34
66312;HTU21D;53114;51.138;6.008;2023-10-09T06:21:58;17.49;117.08
66312;HTU21D;53114;51.138;6.008;2023-10-09T06:24:39;17.50;116.62
66312;HTU21D;53114;51.138;6.008;2023-10-09T06:27:23;17.53;116.32
66312;HTU21D;53114;51.138;6.008;2023-10-09T06:29:56;17.54;116.22
66312;HTU21D;53114;51.138;6.008;2023-10-09T06:32:50;17.56;116.12
66312;HTU21D;53114;51.138;6.008;2023-10-09T06:35:17;17.60;116.09
66312;HTU21D;53114;51.138;6.008;2023-10-09T06:37:46;17.62;115.67
66312;HTU21D;53114;51.138;6.008;2023-10-09T06:40:38;17.63;115.45
66312;HTU21D;53114;51.138;6.008;2023-10-09T06:43:23;17.63;115.44
66312;HTU21D;53114;51.138;6.008;2023-10-09T06:45:53;17.64;115.25
66312;HTU21D;53114;51.138;6.008;2023-10-09T06:48:37;17.64;115.28
66312;HTU21D;53114;51.138;6.008;2023-10-09T06:51:04;17.65;115.21
66312;HTU21D;53114;51.138;6.008;2023-10-09T06:54:09;17.66;115.49
66312;HTU21D;53114;51.138;6.008;2023-10-09T06:56:41;17.65;115.70
66312;HTU21D;53114;51.138;6.008;2023-10-09T06:59:18;17.64;115.93
66312;HTU21D;53114;51.138;6.008;2023-10-09T07:01:49;17.65;115.90
66312;HTU21D;53114;51.138;6.008;2023-10-09T07:04:34;17.67;115.86
66312;HTU21D;53114;51.138;6.008;2023-10-09T07:07:00;17.69;116.20
66312;HTU21D;53114;51.138;6.008;2023-10-09T07:09:27;17.72;116.13
66312;HTU21D;53114;51.138;6.008;2023-10-09T07:12:09;17.74;115.63
66312;HTU21D;53114;51.138;6.008;2023-10-09T07:14:52;17.74;115.14
66312;HTU21D;53114;51.138;6.008;2023-10-09T07:17:28;17.75;115.54
66312;HTU21D;53114;51.138;6.008;2023-10-09T07:20:00;17.77;115.52
66312;HTU21D;53114;51.138;6.008;2023-10-09T07:23:01;17.77;115.21
66312;HTU21D;53114;51.138;6.008;2023-10-09T07:25:41;17.79;115.07
66312;HTU21D;53114;51.138;6.008;2023-10-09T07:28:09;17.81;114.49
66312;HTU21D;53114;51.138;6.008;2023-10-09T07:30:45;17.81;114.54
66312;HTU21D;53114;51.138;6.008;2023-10-09T07:33:21;17.83;114.48
66312;HTU21D;53114;51.138;6.008;2023-10-09T07:35:56;17.84;114.29
66312;HTU21D;53114;51.138;6.008;2023-10-09T07:38:26;17.85;113.98
66312;HTU21D;53114;51.138;6.008;2023-10-09T07:40:56;17.88;113.69
66312;HTU21D;53114;51.138;6.008;2023-10-09T07:43:42;17.90;113.79
66312;HTU21D;53114;51.138;6.008;2023-10-09T07:46:16;17.91;113.45
66312;HTU21D;53114;51.138;6.008;2023-10-09T07:49:03;17.93;113.49
66312;HTU21D;53114;51.138;6.008;2023-10-09T07:51:39;17.98;113.51
66312;HTU21D;53114;51.138;6.008;2023-10-09T07:54:10;18.03;113.20
66312;HTU21D;53114;51.138;6.008;2023-10-09T07:56:42;18.10;112.99
66312;HTU21D;53114;51.138;6.008;2023-10-09T07:59:15;18.22;112.26
66312;HTU21D;53114;51.138;6.008;2023-10-09T08:01:49;18.37;110.89
66312;HTU21D;53114;51.138;6.008;2023-10-09T08:04:19;18.47;109.25
66312;HTU21D;53114;51.138;6.008;2023-10-09T08:07:09;18.59;108.40
66312;HTU21D;53114;51.138;6.008;2023-10-09T08:09:36;18.71;106.32
66312;HTU21D;53114;51.138;6.008;2023-10-09T08:12:17;18.74;105.15
66312;HTU21D;53114;51.138;6.008;2023-10-09T08:15:03;18.72;104.05
66312;HTU21D;53114;51.138;6.008;2023-10-09T08:17:57;18.67;103.65
66312;HTU21D;53114;51.138;6.008;2023-10-09T08:20:30;18.63;104.18
66312;HTU21D;53114;51.138;6.008;2023-10-09T08:23:15;18.59;104.24
66312;HTU21D;53114;51.138;6.008;2023-10-09T08:26:10;18.57;104.18
66312;HTU21D;53114;51.138;6.008;2023-10-09T08:28:43;18.56;104.03
66312;HTU21D;53114;51.138;6.008;2023-10-09T08:31:11;18.58;104.01
66312;HTU21D;53114;51.138;6.008;2023-10-09T08:33:55;18.66;104.12
66312;HTU21D;53114;51.138;6.008;2023-10-09T08:36:28;18.74;103.58
66312;HTU21D;53114;51.138;6.008;2023-10-09T08:38:57;18.84;102.70
66312;HTU21D;53114;51.138;6.008;2023-10-09T08:41:40;18.92;101.61
66312;HTU21D;53114;51.138;6.008;2023-10-09T08:44:06;18.98;100.86
66312;HTU21D;53114;51.138;6.008;2023-10-09T08:46:34;19.01;100.41
66312;HTU21D;53114;51.138;6.008;2023-10-09T08:49:00;19.03;100.06
66312;HTU21D;53114;51.138;6.008;2023-10-09T08:51:27;19.09;99.71
66312;HTU21D;53114;51.138;6.008;2023-10-09T08:53:54;19.09;99.51
66312;HTU21D;53114;51.138;6.008;2023-10-09T08:56:21;19.14;98.62
66312;HTU21D;53114;51.138;6.008;2023-10-09T08:58:55;19.20;97.69
66312;HTU21D;53114;51.138;6.008;2023-10-09T09:01:22;19.35;96.63
66312;HTU21D;53114;51.138;6.008;2023-10-09T09:03:51;19.55;95.85
66312;HTU21D;53114;51.138;6.008;2023-10-09T09:06:18;19.72;93.46
66312;HTU21D;53114;51.138;6.008;2023-10-09T09:08:46;19.80;91.28
66312;HTU21D;53114;51.138;6.008;2023-10-09T09:11:16;19.90;90.28
66312;HTU21D;53114;51.138;6.008;2023-10-09T09:16:32;19.85;89.13
66312;HTU21D;53114;51.138;6.008;2023-10-09T09:19:01;19.85;89.60
66312;HTU21D;53114;51.138;6.008;2023-10-09T09:21:49;19.86;89.56
66312;HTU21D;53114;51.138;6.008;2023-10-09T09:24:20;19.86;89.02
66312;HTU21D;53114;51.138;6.008;2023-10-09T09:26:47;19.86;89.26
66312;HTU21D;53114;51.138;6.008;2023-10-09T09:32:11;19.88;89.70
66312;HTU21D;53114;51.138;6.008;2023-10-09T09:34:44;19.98;89.43
66312;HTU21D;53114;51.138;6.008;2023-10-09T09:37:19;20.21;88.80
66312;HTU21D;53114;51.138;6.008;2023-10-09T09:39:47;20.57;86.64
66312;HTU21D;53114;51.138;6.008;2023-10-09T09:42:16;21.09;85.80
66312;HTU21D;53114;51.138;6.008;2023-10-09T09:44:44;21.75;79.77
66312;HTU21D;53114;51.138;6.008;2023-10-09T09:47:15;22.22;74.37
66312;HTU21D;53114;51.138;6.008;2023-10-09T09:49:53;22.36;71.31
66312;HTU21D;53114;51.138;6.008;2023-10-09T09:52:28;22.29;70.36
66312;HTU21D;53114;51.138;6.008;2023-10-09T09:54:54;22.11;70.14
66312;HTU21D;53114;51.138;6.008;2023-10-09T09:57:24;21.95;70.64
66312;HTU21D;53114;51.138;6.008;2023-10-09T09:59:54;21.83;72.18
66312;HTU21D;53114;51.138;6.008;2023-10-09T10:02:38;21.79;72.58
66312;HTU21D;53114;51.138;6.008;2023-10-09T10:05:08;21.70;72.85
66312;HTU21D;53114;51.138;6.008;2023-10-09T10:07:38;21.61;73.09
66312;HTU21D;53114;51.138;6.008;2023-10-09T10:10:37;21.52;73.51
66312;HTU21D;53114;51.138;6.008;2023-10-09T10:13:05;21.48;73.88
66312;HTU21D;53114;51.138;6.008;2023-10-09T10:18:59;21.27;74.28
66312;HTU21D;53114;51.138;6.008;2023-10-09T10:21:37;21.24;74.76
66312;HTU21D;53114;51.138;6.008;2023-10-09T10:35:19;21.46;73.12
66312;HTU21D;53114;51.138;6.008;2023-10-09T10:38:22;21.48;72.99
66312;HTU21D;53114;51.138;6.008;2023-10-09T10:40:48;21.53;72.86
66312;HTU21D;53114;51.138;6.008;2023-10-09T10:43:23;21.63;72.60
66312;HTU21D;53114;51.138;6.008;2023-10-09T10:46:14;21.79;72.53
66312;HTU21D;53114;51.138;6.008;2023-10-09T10:49:06;21.88;71.09
66312;HTU21D;53114;51.138;6.008;2023-10-09T10:51:42;21.97;70.37
66312;HTU21D;53114;51.138;6.008;2023-10-09T10:54:23;22.05;69.84
66312;HTU21D;53114;51.138;6.008;2023-10-09T10:56:58;22.13;69.55
66312;HTU21D;53114;51.138;6.008;2023-10-09T10:59:30;22.18;68.98
66312;HTU21D;53114;51.138;6.008;2023-10-09T11:02:09;22.16;68.70
66312;HTU21D;53114;51.138;6.008;2023-10-09T11:04:39;22.14;68.61
66312;HTU21D;53114;51.138;6.008;2023-10-09T11:07:08;22.14;68.42
66312;HTU21D;53114;51.138;6.008;2023-10-09T11:12:28;22.21;68.22
66312;HTU21D;53114;51.138;6.008;2023-10-09T11:15:05;22.23;67.73
66312;HTU21D;53114;51.138;6.008;2023-10-09T11:17:33;22.21;67.50
66312;HTU21D;53114;51.138;6.008;2023-10-09T11:20:05;22.26;67.66
66312;HTU21D;53114;51.138;6.008;2023-10-09T11:22:52;22.32;67.59
66312;HTU21D;53114;51.138;6.008;2023-10-09T11:25:45;22.29;67.56
66312;HTU21D;53114;51.138;6.008;2023-10-09T11:28:19;22.32;67.65
66312;HTU21D;53114;51.138;6.008;2023-10-09T11:31:17;22.39;67.54
66312;HTU21D;53114;51.138;6.008;2023-10-09T11:33:47;22.39;67.52
66312;HTU21D;53114;51.138;6.008;2023-10-09T11:36:22;22.41;67.57
66312;HTU21D;53114;51.138;6.008;2023-10-09T11:38:58;22.43;67.43
66312;HTU21D;53114;51.138;6.008;2023-10-09T11:41:44;22.54;67.54
66312;HTU21D;53114;51.138;6.008;2023-10-09T11:44:11;22.62;67.10
66312;HTU21D;53114;51.138;6.008;2023-10-09T11:47:00;22.64;66.94
66312;HTU21D;53114;51.138;6.008;2023-10-09T11:49:53;22.63;66.69
66312;HTU21D;53114;51.138;6.008;2023-10-09T11:52:32;22.57;66.65
66312;HTU21D;53114;51.138;6.008;2023-10-09T11:55:05;22.53;67.01
66312;HTU21D;53114;51.138;6.008;2023-10-09T11:57:42;22.50;67.05
66312;HTU21D;53114;51.138;6.008;2023-10-09T12:00:08;22.53;67.37
66312;HTU21D;53114;51.138;6.008;2023-10-09T12:02:53;22.62;67.37
66312;HTU21D;53114;51.138;6.008;2023-10-09T12:05:19;22.69;67.34
66312;HTU21D;53114;51.138;6.008;2023-10-09T12:07:45;22.70;66.91
66312;HTU21D;53114;51.138;6.008;2023-10-09T12:10:12;22.64;66.65
66312;HTU21D;53114;51.138;6.008;2023-10-09T12:12:40;22.63;66.65
66312;HTU21D;53114;51.138;6.008;2023-10-09T12:15:06;22.61;66.77
66312;HTU21D;53114;51.138;6.008;2023-10-09T12:17:32;22.64;66.85
66312;HTU21D;53114;51.138;6.008;2023-10-09T12:19:58;22.67;66.78
66312;HTU21D;53114;51.138;6.008;2023-10-09T12:22:24;22.70;66.88
66312;HTU21D;53114;51.138;6.008;2023-10-09T12:24:52;22.72;66.64
66312;HTU21D;53114;51.138;6.008;2023-10-09T12:27:18;22.77;66.55
66312;HTU21D;53114;51.138;6.008;2023-10-09T12:29:46;22.80;66.84
66312;HTU21D;53114;51.138;6.008;2023-10-09T12:32:12;22.82;66.79
66312;HTU21D;53114;51.138;6.008;2023-10-09T12:34:39;22.84;66.78
66312;HTU21D;53114;51.138;6.008;2023-10-09T12:37:05;22.86;67.04
66312;HTU21D;53114;51.138;6.008;2023-10-09T12:39:32;22.86;66.82
66312;HTU21D;53114;51.138;6.008;2023-10-09T12:42:06;22.84;66.53
66312;HTU21D;53114;51.138;6.008;2023-10-09T12:44:33;22.81;66.39
66312;HTU21D;53114;51.138;6.008;2023-10-09T12:47:06;22.78;66.26
66312;HTU21D;53114;51.138;6.008;2023-10-09T12:49:32;22.76;66.40
66312;HTU21D;53114;51.138;6.008;2023-10-09T12:51:58;22.76;66.73
66312;HTU21D;53114;51.138;6.008;2023-10-09T12:54:25;22.76;67.06
66312;HTU21D;53114;51.138;6.008;2023-10-09T12:56:57;22.75;67.39
66312;HTU21D;53114;51.138;6.008;2023-10-09T12:59:24;22.73;67.23
66312;HTU21D;53114;51.138;6.008;2023-10-09T13:01:51;22.71;67.30
66312;HTU21D;53114;51.138;6.008;2023-10-09T13:04:24;22.69;67.18
66312;HTU21D;53114;51.138;6.008;2023-10-09T13:06:58;22.69;67.33
66312;HTU21D;53114;51.138;6.008;2023-10-09T13:09:30;22.64;67.45
66312;HTU21D;53114;51.138;6.008;2023-10-09T13:12:09;22.61;67.56
66312;HTU21D;53114;51.138;6.008;2023-10-09T13:14:43;22.58;67.46
66312;HTU21D;53114;51.138;6.008;2023-10-09T13:17:11;22.56;67.68
66312;HTU21D;53114;51.138;6.008;2023-10-09T13:19:37;22.54;67.88
66312;HTU21D;53114;51.138;6.008;2023-10-09T13:22:03;22.53;68.20
66312;HTU21D;53114;51.138;6.008;2023-10-09T13:24:29;22.50;68.58
66312;HTU21D;53114;51.138;6.008;2023-10-09T13:26:56;22.48;69.01
66312;HTU21D;53114;51.138;6.008;2023-10-09T13:29:24;22.49;69.37
66312;HTU21D;53114;51.138;6.008;2023-10-09T13:31:51;22.51;69.58
66312;HTU21D;53114;51.138;6.008;2023-10-09T13:34:18;22.52;69.45
66312;HTU21D;53114;51.138;6.008;2023-10-09T13:36:44;22.51;69.40
66312;HTU21D;53114;51.138;6.008;2023-10-09T13:39:19;22.53;69.65
66312;HTU21D;53114;51.138;6.008;2023-10-09T13:41:46;22.56;69.55
66312;HTU21D;53114;51.138;6.008;2023-10-09T13:44:12;22.49;69.31
66312;HTU21D;53114;51.138;6.008;2023-10-09T13:46:38;22.48;69.39
66312;HTU21D;53114;51.138;6.008;2023-10-09T13:49:07;22.43;69.62
66312;HTU21D;53114;51.138;6.008;2023-10-09T13:51:38;22.39;69.58
66312;HTU21D;53114;51.138;6.008;2023-10-09T13:54:10;22.35;69.65
66312;HTU21D;53114;51.138;6.008;2023-10-09T13:56:36;22.32;69.51
66312;HTU21D;53114;51.138;6.008;2023-10-09T13:59:04;22.24;69.48
66312;HTU21D;53114;51.138;6.008;2023-10-09T14:01:37;22.21;69.68
66312;HTU21D;53114;51.138;6.008;2023-10-09T14:04:05;22.21;69.87
66312;HTU21D;53114;51.138;6.008;2023-10-09T14:06:34;22.21;70.10
66312;HTU21D;53114;51.138;6.008;2023-10-09T14:09:04;22.21;70.03
66312;HTU21D;53114;51.138;6.008;2023-10-09T14:11:31;22.21;70.28
66312;HTU21D;53114;51.138;6.008;2023-10-09T14:13:58;22.19;70.62
66312;HTU21D;53114;51.138;6.008;2023-10-09T14:16:27;22.17;70.99
66312;HTU21D;53114;51.138;6.008;2023-10-09T14:18:55;22.14;71.61
66312;HTU21D;53114;51.138;6.008;2023-10-09T14:21:24;22.05;71.87
66312;HTU21D;53114;51.138;6.008;2023-10-09T14:23:54;21.94;72.01
66312;HTU21D;53114;51.138;6.008;2023-10-09T14:26:26;21.83;72.47
66312;HTU21D;53114;51.138;6.008;2023-10-09T14:28:54;21.78;72.85
66312;HTU21D;53114;51.138;6.008;2023-10-09T14:31:23;21.73;73.27
66312;HTU21D;53114;51.138;6.008;2023-10-09T14:33:55;21.75;73.74
66312;HTU21D;53114;51.138;6.008;2023-10-09T14:36:22;21.79;74.15
66312;HTU21D;53114;51.138;6.008;2023-10-09T14:38:51;21.92;74.22
66312;HTU21D;53114;51.138;6.008;2023-10-09T14:41:20;22.05;74.07
66312;HTU21D;53114;51.138;6.008;2023-10-09T14:43:50;22.18;73.84
66312;HTU21D;53114;51.138;6.008;2023-10-09T14:46:16;22.28;73.35
66312;HTU21D;53114;51.138;6.008;2023-10-09T14:48:49;22.32;72.69
66312;HTU21D;53114;51.138;6.008;2023-10-09T14:51:15;22.37;72.49
66312;HTU21D;53114;51.138;6.008;2023-10-09T14:53:41;22.35;72.08
66312;HTU21D;53114;51.138;6.008;2023-10-09T14:56:07;22.36;72.29
66312;HTU21D;53114;51.138;6.008;2023-10-09T14:58:35;22.35;71.78
66312;HTU21D;53114;51.138;6.008;2023-10-09T15:01:11;22.32;71.86
66312;HTU21D;53114;51.138;6.008;2023-10-09T15:03:38;22.24;71.90
66312;HTU21D;53114;51.138;6.008;2023-10-09T15:06:04;22.13;72.02
66312;HTU21D;53114;51.138;6.008;2023-10-09T15:08:36;22.03;72.54
66312;HTU21D;53114;51.138;6.008;2023-10-09T15:11:02;21.94;73.34
66312;HTU21D;53114;51.138;6.008;2023-10-09T15:13:28;21.87;73.87
66312;HTU21D;53114;51.138;6.008;2023-10-09T15:15:55;21.78;74.17
66312;HTU21D;53114;51.138;6.008;2023-10-09T15:18:22;21.68;74.60
66312;HTU21D;53114;51.138;6.008;2023-10-09T15:20:48;21.61;75.37
66312;HTU21D;53114;51.138;6.008;2023-10-09T15:23:15;21.54;75.77
66312;HTU21D;53114;51.138;6.008;2023-10-09T15:25:40;21.50;76.34
66312;HTU21D;53114;51.138;6.008;2023-10-09T15:28:11;21.44;77.15
66312;HTU21D;53114;51.138;6.008;2023-10-09T15:30:38;21.39;77.27
66312;HTU21D;53114;51.138;6.008;2023-10-09T15:33:05;21.36;77.49
66312;HTU21D;53114;51.138;6.008;2023-10-09T15:35:31;21.31;77.93
66312;HTU21D;53114;51.138;6.008;2023-10-09T15:38:03;21.30;78.05
66312;HTU21D;53114;51.138;6.008;2023-10-09T15:40:30;21.32;78.14
66312;HTU21D;53114;51.138;6.008;2023-10-09T15:43:00;21.33;78.21
66312;HTU21D;53114;51.138;6.008;2023-10-09T15:45:26;21.34;78.53
66312;HTU21D;53114;51.138;6.008;2023-10-09T15:47:55;21.32;78.75
66312;HTU21D;53114;51.138;6.008;2023-10-09T15:50:22;21.32;79.26
66312;HTU21D;53114;51.138;6.008;2023-10-09T15:52:52;21.33;79.40
66312;HTU21D;53114;51.138;6.008;2023-10-09T15:55:20;21.34;79.32
66312;HTU21D;53114;51.138;6.008;2023-10-09T15:57:50;21.39;79.40
66312;HTU21D;53114;51.138;6.008;2023-10-09T16:00:23;21.40;79.21
66312;HTU21D;53114;51.138;6.008;2023-10-09T16:02:54;21.44;79.39
66312;HTU21D;53114;51.138;6.008;2023-10-09T16:05:21;21.46;79.76
66312;HTU21D;53114;51.138;6.008;2023-10-09T16:07:55;21.48;79.90
66312;HTU21D;53114;51.138;6.008;2023-10-09T16:10:22;21.48;79.67